createdAt,value
2023-02-19T00:01:15.852Z,69.23
2023-02-19T00:03:47.420Z,69.28
2023-02-19T00:06:13.869Z,69.24
2023-02-19T00:08:40.245Z,69.21
2023-02-19T00:11:10.989Z,69.39
2023-02-19T00:13:43.328Z,69.39
2023-02-19T00:16:17.773Z,69.44
2023-02-19T00:18:45.288Z,69.55
2023-02-19T00:21:13.040Z,69.60
2023-02-19T00:23:39.813Z,69.66
2023-02-19T00:26:17.651Z,69.71
2023-02-19T00:28:45.772Z,69.73
2023-02-19T00:31:15.066Z,69.89
2023-02-19T00:33:42.032Z,69.82
2023-02-19T00:36:08.432Z,69.85
2023-02-19T00:38:39.442Z,69.99
2023-02-19T00:41:19.009Z,70.01
2023-02-19T00:43:51.566Z,70.12
2023-02-19T00:46:20.520Z,70.18
2023-02-19T00:48:47.446Z,70.41
2023-02-19T00:51:14.475Z,70.46
2023-02-19T00:53:41.025Z,70.59
2023-02-19T00:56:08.622Z,70.66
2023-02-19T00:58:35.028Z,70.69
2023-02-19T01:01:01.386Z,70.97
2023-02-19T01:03:27.740Z,70.80
2023-02-19T01:05:54.561Z,70.79
2023-02-19T01:08:21.267Z,70.89
2023-02-19T01:10:48.030Z,70.99
2023-02-19T01:13:14.768Z,70.99
2023-02-19T01:15:41.119Z,70.93
2023-02-19T01:18:07.927Z,71.04
2023-02-19T01:20:34.374Z,70.80
2023-02-19T01:23:00.965Z,70.88
2023-02-19T01:25:27.342Z,70.70
2023-02-19T01:27:53.671Z,70.72
2023-02-19T01:30:20.014Z,70.59
2023-02-19T01:32:46.409Z,70.73
2023-02-19T01:35:12.730Z,70.71
2023-02-19T01:37:39.069Z,70.79
2023-02-19T01:40:05.959Z,70.68
2023-02-19T01:42:32.344Z,70.65
2023-02-19T01:45:22.249Z,70.56
2023-02-19T01:47:54.797Z,70.42
2023-02-19T01:50:21.858Z,70.35
2023-02-19T01:52:48.329Z,70.42
2023-02-19T01:55:15.242Z,70.46
2023-02-19T01:57:46.388Z,70.34
2023-02-19T02:00:15.231Z,70.22
2023-02-19T02:02:44.892Z,70.13
2023-02-19T02:05:44.070Z,69.97
2023-02-19T02:08:30.747Z,69.99
2023-02-19T02:10:57.764Z,69.97
2023-02-19T02:13:24.266Z,70.08
2023-02-19T02:16:07.150Z,69.93
2023-02-19T02:19:02.159Z,70.08
2023-02-19T02:22:06.590Z,69.96
2023-02-19T02:25:04.130Z,70.00
2023-02-19T02:30:01.647Z,69.66
2023-02-19T02:32:35.644Z,69.82
2023-02-19T02:35:09.777Z,69.80
2023-02-19T02:37:39.344Z,69.67
2023-02-19T02:40:08.114Z,69.85
2023-02-19T02:42:38.131Z,69.66
2023-02-19T02:45:35.483Z,69.67
2023-02-19T02:48:38.302Z,69.77
2023-02-19T02:51:36.218Z,69.56
2023-02-19T02:54:44.458Z,69.39
2023-02-19T02:57:14.739Z,69.32
2023-02-19T02:59:42.647Z,69.22
2023-02-19T03:02:20.073Z,69.50
2023-02-19T03:05:25.660Z,69.48
2023-02-19T03:07:58.154Z,69.19
2023-02-19T03:10:48.305Z,69.25
2023-02-19T03:13:55.754Z,69.39
2023-02-19T03:16:50.802Z,69.38
2023-02-19T03:19:20.387Z,69.61
2023-02-19T03:21:52.166Z,69.55
2023-02-19T03:24:41.490Z,69.79
2023-02-19T03:27:09.757Z,69.63
2023-02-19T03:29:39.320Z,69.62
2023-02-19T03:32:11.316Z,69.87
2023-02-19T03:34:47.054Z,70.04
2023-02-19T03:37:18.789Z,69.84
2023-02-19T03:39:45.513Z,69.91
2023-02-19T03:42:33.515Z,69.85
2023-02-19T03:45:30.130Z,70.06
2023-02-19T03:48:05.577Z,69.79
2023-02-19T03:50:34.845Z,69.92
2023-02-19T03:53:12.438Z,70.03
2023-02-19T03:55:50.025Z,70.01
2023-02-19T03:58:32.440Z,70.17
2023-02-19T04:01:07.326Z,70.08
2023-02-19T04:03:43.697Z,70.03
2023-02-19T04:06:15.062Z,69.92
2023-02-19T04:08:46.141Z,70.13
2023-02-19T04:11:15.488Z,69.52
2023-02-19T04:13:58.553Z,69.52
2023-02-19T04:16:28.822Z,69.60
2023-02-19T04:19:02.099Z,69.40
2023-02-19T04:21:32.101Z,69.42
2023-02-19T04:24:03.058Z,68.73
2023-02-19T04:26:31.170Z,69.22
2023-02-19T04:28:57.535Z,69.33
2023-02-19T04:31:25.717Z,68.87
2023-02-19T04:33:52.165Z,68.96
2023-02-19T04:36:18.554Z,68.95
2023-02-19T04:38:45.308Z,69.06
2023-02-19T04:41:11.979Z,69.14
2023-02-19T04:43:38.554Z,68.95
2023-02-19T04:46:05.099Z,69.04
2023-02-19T04:48:31.465Z,68.99
2023-02-19T04:50:57.828Z,69.05
2023-02-19T04:53:24.254Z,69.11
2023-02-19T04:55:53.148Z,69.10
2023-02-19T04:58:20.313Z,69.17
2023-02-19T05:00:46.689Z,69.15
2023-02-19T05:03:13.078Z,69.00
2023-02-19T05:05:39.433Z,69.17
2023-02-19T05:08:05.827Z,69.26
2023-02-19T05:10:33.524Z,69.00
2023-02-19T05:12:59.846Z,69.18
2023-02-19T05:15:26.220Z,69.09
2023-02-19T05:17:52.535Z,69.18
2023-02-19T05:20:19.019Z,69.03
2023-02-19T05:22:45.365Z,69.11
2023-02-19T05:25:11.737Z,69.27
2023-02-19T05:27:38.117Z,69.04
2023-02-19T05:30:04.753Z,69.02
2023-02-19T05:32:31.122Z,69.08
2023-02-19T05:34:57.545Z,69.27
2023-02-19T05:37:23.924Z,69.03
2023-02-19T05:39:50.294Z,68.74
2023-02-19T05:42:16.760Z,69.16
2023-02-19T05:44:43.345Z,69.14
2023-02-19T05:47:09.746Z,68.96
2023-02-19T05:49:36.257Z,68.75
2023-02-19T05:52:02.701Z,68.63
2023-02-19T05:54:29.715Z,68.71
2023-02-19T05:56:56.521Z,68.66
2023-02-19T05:59:25.313Z,68.60
2023-02-19T06:01:53.221Z,68.37
2023-02-19T06:04:20.440Z,68.35
2023-02-19T06:06:47.630Z,68.29
2023-02-19T06:09:14.065Z,68.19
2023-02-19T06:11:40.634Z,68.32
2023-02-19T06:14:07.157Z,68.14
2023-02-19T06:16:34.484Z,68.12
2023-02-19T06:19:04.918Z,68.41
2023-02-19T06:21:31.381Z,68.29
2023-02-19T06:23:57.789Z,68.29
2023-02-19T06:26:24.996Z,68.41
2023-02-19T06:28:53.264Z,68.35
2023-02-19T06:31:22.781Z,68.45
2023-02-19T06:33:50.555Z,68.51
2023-02-19T06:36:19.221Z,68.27
2023-02-19T06:38:45.611Z,67.58
2023-02-19T06:41:12.948Z,66.46
2023-02-19T06:43:39.889Z,65.39
2023-02-19T06:46:07.974Z,64.88
2023-02-19T06:48:35.319Z,65.45
2023-02-19T06:51:02.099Z,65.94
2023-02-19T06:53:28.685Z,66.35
2023-02-19T06:56:00.757Z,66.58
2023-02-19T06:58:27.317Z,67.07
2023-02-19T07:00:54.103Z,66.56
2023-02-19T07:03:20.626Z,67.32
2023-02-19T07:05:47.208Z,67.40
2023-02-19T07:08:13.659Z,67.67
2023-02-19T07:10:40.025Z,67.56
2023-02-19T07:13:06.438Z,67.17
2023-02-19T07:15:33.461Z,67.87
2023-02-19T07:17:59.805Z,67.96
2023-02-19T07:20:26.293Z,68.06
2023-02-19T07:22:52.804Z,68.36
2023-02-19T07:25:19.133Z,68.37
2023-02-19T07:27:45.440Z,68.63
2023-02-19T07:30:12.121Z,68.83
2023-02-19T07:32:41.585Z,68.89
2023-02-19T07:35:08.412Z,68.93
2023-02-19T07:37:34.763Z,68.84
2023-02-19T07:40:01.240Z,68.64
2023-02-19T07:42:27.596Z,69.17
2023-02-19T07:44:53.922Z,69.21
2023-02-19T07:47:20.448Z,68.79
2023-02-19T07:49:46.766Z,69.22
2023-02-19T07:52:13.166Z,68.47
2023-02-19T07:54:39.604Z,68.84
2023-02-19T07:57:05.911Z,69.46
2023-02-19T07:59:32.283Z,69.40
2023-02-19T08:02:17.213Z,69.19
2023-02-19T08:04:43.589Z,69.38
2023-02-19T08:07:09.965Z,68.76
2023-02-19T08:09:36.370Z,69.48
2023-02-19T08:12:21.337Z,69.78
2023-02-19T08:14:47.678Z,69.06
2023-02-19T08:17:14.083Z,68.37
2023-02-19T08:19:40.590Z,67.96
2023-02-19T08:22:06.954Z,67.00
2023-02-19T08:24:33.847Z,66.87
2023-02-19T08:27:00.188Z,66.94
2023-02-19T08:29:27.187Z,66.61
2023-02-19T08:31:53.582Z,66.87
2023-02-19T08:34:19.952Z,66.94
2023-02-19T08:36:46.292Z,67.10
2023-02-19T08:39:12.653Z,66.88
2023-02-19T08:41:38.974Z,67.56
2023-02-19T08:44:05.285Z,67.33
2023-02-19T08:46:33.485Z,67.89
2023-02-19T08:49:00.692Z,67.39
2023-02-19T08:51:27.237Z,67.04
2023-02-19T08:53:53.571Z,66.47
2023-02-19T08:56:19.900Z,66.74
2023-02-19T08:58:46.281Z,66.25
2023-02-19T09:01:19.069Z,65.90
2023-02-19T09:03:45.688Z,65.80
2023-02-19T09:06:17.643Z,66.19
2023-02-19T09:08:44.117Z,65.71
2023-02-19T09:11:10.860Z,65.98
2023-02-19T09:13:37.436Z,65.55
2023-02-19T09:16:05.192Z,65.53
2023-02-19T09:18:31.778Z,65.86
2023-02-19T09:21:04.461Z,65.76
2023-02-19T09:23:33.333Z,65.49
2023-02-19T09:26:00.901Z,65.89
2023-02-19T09:28:27.967Z,66.19
2023-02-19T09:30:54.616Z,66.51
2023-02-19T09:33:21.037Z,66.28
2023-02-19T09:35:47.644Z,66.17
2023-02-19T09:38:14.022Z,66.16
2023-02-19T09:40:40.550Z,65.71
2023-02-19T09:43:12.050Z,65.93
2023-02-19T09:45:39.878Z,65.53
2023-02-19T09:48:06.966Z,65.85
2023-02-19T09:50:40.949Z,65.99
2023-02-19T09:53:17.544Z,65.92
2023-02-19T09:55:44.871Z,65.98
2023-02-19T09:58:25.577Z,65.94
2023-02-19T10:00:53.498Z,65.96
2023-02-19T10:03:34.177Z,65.94
2023-02-19T10:06:20.312Z,65.94
2023-02-19T10:20:36.994Z,69.70
2023-02-19T10:23:06.132Z,69.51
2023-02-19T10:25:34.510Z,69.22
2023-02-19T10:28:02.346Z,68.23
2023-02-19T10:30:32.109Z,67.68
2023-02-19T10:33:08.854Z,67.78
2023-02-19T10:35:38.083Z,67.60
2023-02-19T10:38:06.751Z,67.74
2023-02-19T10:40:33.669Z,66.74
2023-02-19T10:43:04.738Z,66.01
2023-02-19T10:45:50.277Z,66.42
2023-02-19T10:48:26.427Z,66.62
2023-02-19T10:50:57.998Z,65.40
2023-02-19T10:53:37.997Z,65.57
2023-02-19T10:56:14.644Z,64.69
2023-02-19T10:58:44.903Z,63.17
2023-02-19T11:01:11.745Z,62.22
2023-02-19T11:03:38.405Z,61.93
2023-02-19T11:06:08.934Z,61.85
2023-02-19T11:08:51.416Z,62.10
2023-02-19T11:11:36.660Z,61.97
2023-02-19T11:14:12.792Z,61.39
2023-02-19T11:16:47.805Z,60.64
2023-02-19T11:19:37.874Z,60.91
2023-02-19T11:22:26.412Z,60.93
2023-02-19T11:24:57.283Z,60.30
2023-02-19T11:27:25.233Z,59.54
2023-02-19T11:29:51.730Z,58.92
2023-02-19T11:32:25.233Z,59.52
2023-02-19T11:34:52.680Z,58.76
2023-02-19T11:37:21.382Z,58.95
2023-02-19T11:39:50.164Z,58.86
2023-02-19T11:42:48.644Z,59.16
2023-02-19T11:45:29.715Z,59.87
2023-02-19T11:48:19.306Z,60.54
2023-02-19T11:51:05.482Z,60.51
2023-02-19T11:53:34.474Z,59.61
2023-02-19T11:56:14.316Z,59.53
2023-02-19T11:58:58.017Z,59.34
2023-02-19T12:01:34.605Z,59.43
2023-02-19T12:04:25.980Z,59.01
2023-02-19T12:06:55.399Z,58.06
2023-02-19T12:09:45.857Z,58.57
2023-02-19T12:12:29.379Z,57.97
2023-02-19T12:15:17.088Z,58.07
2023-02-19T12:18:30.570Z,57.62
2023-02-19T12:21:12.028Z,57.85
2023-02-19T12:24:09.861Z,57.56
2023-02-19T12:27:03.837Z,57.21
2023-02-19T12:29:54.498Z,57.07
2023-02-19T12:32:33.084Z,57.06
2023-02-19T12:35:21.575Z,56.79
2023-02-19T12:38:03.035Z,55.33
2023-02-19T12:41:13.038Z,55.04
2023-02-19T12:43:46.905Z,54.70
2023-02-19T12:46:21.427Z,54.81
2023-02-19T12:49:00.551Z,54.55
2023-02-19T12:51:41.880Z,54.18
2023-02-19T12:54:34.040Z,54.93
2023-02-19T12:57:06.439Z,53.67
2023-02-19T12:59:49.508Z,54.39
2023-02-19T13:02:25.392Z,54.01
2023-02-19T13:05:01.278Z,54.99
2023-02-19T13:07:36.945Z,54.17
2023-02-19T13:10:17.537Z,53.62
2023-02-19T13:12:47.172Z,53.41
2023-02-19T13:15:31.454Z,53.22
2023-02-19T13:18:01.408Z,52.80
2023-02-19T13:20:42.255Z,52.60
2023-02-19T13:23:40.388Z,52.15
2023-02-19T13:26:29.483Z,52.60
2023-02-19T13:29:13.548Z,52.09
2023-02-19T13:32:04.276Z,51.06
2023-02-19T13:35:04.780Z,51.95
2023-02-19T13:37:35.150Z,51.66
2023-02-19T13:40:06.802Z,51.39
2023-02-19T13:42:35.814Z,51.27
2023-02-19T13:45:05.188Z,51.86
2023-02-19T13:47:58.573Z,51.67
2023-02-19T13:50:31.876Z,52.22
2023-02-19T13:53:00.096Z,51.57
2023-02-19T13:55:50.748Z,51.80
2023-02-19T13:58:36.260Z,52.20
2023-02-19T14:01:07.809Z,51.78
2023-02-19T14:03:37.245Z,51.58
2023-02-19T14:06:06.365Z,51.48
2023-02-19T14:08:58.117Z,51.51
2023-02-19T14:11:50.933Z,51.68
2023-02-19T14:14:30.555Z,51.69
2023-02-19T14:17:04.503Z,51.70
2023-02-19T14:20:09.294Z,52.05
2023-02-19T14:22:47.778Z,51.91
2023-02-19T14:25:29.590Z,51.65
2023-02-19T14:28:04.995Z,51.67
2023-02-19T14:30:33.957Z,52.00
2023-02-19T14:33:10.308Z,52.37
2023-02-19T14:35:43.121Z,52.89
2023-02-19T14:38:20.074Z,52.73
2023-02-19T14:40:48.386Z,52.21
2023-02-19T14:43:18.626Z,52.39
2023-02-19T14:45:51.607Z,52.53
2023-02-19T14:48:23.613Z,52.94
2023-02-19T14:50:55.319Z,52.95
2023-02-19T14:53:24.482Z,52.62
2023-02-19T14:55:52.652Z,52.60
2023-02-19T14:58:26.028Z,52.91
2023-02-19T15:00:52.448Z,52.83
2023-02-19T15:03:29.736Z,52.79
2023-02-19T15:06:03.817Z,52.56
2023-02-19T15:08:39.829Z,52.61
2023-02-19T15:11:20.276Z,52.80
2023-02-19T15:13:51.131Z,52.90
2023-02-19T15:16:32.750Z,53.16
2023-02-19T15:19:00.186Z,52.41
2023-02-19T15:21:34.134Z,52.87
2023-02-19T15:24:04.019Z,52.80
2023-02-19T15:26:41.225Z,52.70
2023-02-19T15:29:23.015Z,53.08
2023-02-19T15:31:56.999Z,52.70
2023-02-19T15:34:29.147Z,52.41
2023-02-19T15:36:59.816Z,51.92
2023-02-19T15:39:48.828Z,51.90
2023-02-19T15:42:19.797Z,51.49
2023-02-19T15:44:56.944Z,51.49
2023-02-19T15:47:33.345Z,51.92
2023-02-19T15:50:15.069Z,52.04
2023-02-19T15:52:59.120Z,52.04
2023-02-19T15:55:29.592Z,51.86
2023-02-19T15:58:20.389Z,51.95
2023-02-19T16:00:54.096Z,51.63
2023-02-19T16:03:23.196Z,51.71
2023-02-19T16:06:03.245Z,52.12
2023-02-19T16:08:34.794Z,52.00
2023-02-19T16:11:04.568Z,51.98
2023-02-19T16:13:33.438Z,52.00
2023-02-19T16:16:09.094Z,52.27
2023-02-19T16:18:35.889Z,52.25
2023-02-19T16:21:09.189Z,52.83
2023-02-19T16:23:41.133Z,51.75
2023-02-19T16:26:07.681Z,52.07
2023-02-19T16:28:38.349Z,52.56
2023-02-19T16:31:11.026Z,52.45
2023-02-19T16:33:40.470Z,52.14
2023-02-19T16:36:16.132Z,52.29
2023-02-19T16:39:07.782Z,52.58
2023-02-19T16:41:54.243Z,52.64
2023-02-19T16:44:20.466Z,53.45
2023-02-19T16:46:57.792Z,52.79
2023-02-19T16:49:24.714Z,52.59
2023-02-19T16:51:51.526Z,52.83
2023-02-19T16:54:17.860Z,52.91
2023-02-19T16:56:44.220Z,53.24
2023-02-19T16:59:10.572Z,53.33
2023-02-19T17:01:37.883Z,53.43
2023-02-19T17:04:08.225Z,54.10
2023-02-19T17:06:34.962Z,53.89
2023-02-19T17:09:01.344Z,53.78
2023-02-19T17:11:27.685Z,53.65
2023-02-19T17:13:54.093Z,53.82
2023-02-19T17:16:24.078Z,54.07
2023-02-19T17:18:51.229Z,53.91
2023-02-19T17:21:22.303Z,54.31
2023-02-19T17:23:49.804Z,54.29
2023-02-19T17:26:19.166Z,54.44
2023-02-19T17:28:46.053Z,54.34
2023-02-19T17:31:14.457Z,54.37
2023-02-19T17:33:42.569Z,54.51
2023-02-19T17:36:18.089Z,54.64
2023-02-19T17:38:44.482Z,54.45
2023-02-19T17:41:11.086Z,54.49
2023-02-19T17:43:37.784Z,54.36
2023-02-19T17:46:04.444Z,54.88
2023-02-19T17:48:31.056Z,55.02
2023-02-19T17:50:57.408Z,54.97
2023-02-19T17:53:23.721Z,55.16
2023-02-19T17:55:50.081Z,54.98
2023-02-19T17:58:16.459Z,54.96
2023-02-19T18:00:42.806Z,54.85
2023-02-19T18:03:10.388Z,55.04
2023-02-19T18:05:36.716Z,55.16
2023-02-19T18:08:03.175Z,55.27
2023-02-19T18:10:30.435Z,55.40
2023-02-19T18:12:56.970Z,55.24
2023-02-19T18:15:26.765Z,54.96
2023-02-19T18:17:54.079Z,55.33
2023-02-19T18:20:23.310Z,55.19
2023-02-19T18:22:50.599Z,55.27
2023-02-19T18:25:18.094Z,55.41
2023-02-19T18:27:44.629Z,55.52
2023-02-19T18:30:12.688Z,55.54
2023-02-19T18:32:39.060Z,55.86
2023-02-19T18:35:05.798Z,55.64
2023-02-19T18:37:33.705Z,55.93
2023-02-19T18:40:00.915Z,55.97
2023-02-19T18:42:27.826Z,55.98
2023-02-19T18:44:54.945Z,56.11
2023-02-19T18:47:22.373Z,56.18
2023-02-19T18:49:50.279Z,56.26
2023-02-19T18:52:21.208Z,56.53
2023-02-19T18:54:52.449Z,56.64
2023-02-19T18:57:21.322Z,56.72
2023-02-19T18:59:48.135Z,56.95
2023-02-19T19:02:16.657Z,56.84
2023-02-19T19:04:43.209Z,56.76
2023-02-19T19:07:10.156Z,57.00
2023-02-19T19:09:36.818Z,56.83
2023-02-19T19:12:05.316Z,56.94
2023-02-19T19:14:31.780Z,57.10
2023-02-19T19:16:58.259Z,56.98
2023-02-19T19:19:24.596Z,57.23
2023-02-19T19:21:53.434Z,57.35
2023-02-19T19:24:20.906Z,57.35
2023-02-19T19:26:48.985Z,57.30
2023-02-19T19:29:18.022Z,57.54
2023-02-19T19:31:45.293Z,57.72
2023-02-19T19:34:12.525Z,57.61
2023-02-19T19:36:39.213Z,57.61
2023-02-19T19:39:06.650Z,57.72
2023-02-19T19:41:33.481Z,57.63
2023-02-19T19:44:04.285Z,57.71
2023-02-19T19:46:30.823Z,57.93
2023-02-19T19:48:57.205Z,57.98
2023-02-19T19:51:23.797Z,58.17
2023-02-19T19:53:50.557Z,58.11
2023-02-19T19:56:17.610Z,58.21
2023-02-19T19:58:44.037Z,58.51
2023-02-19T20:01:10.759Z,58.58
2023-02-19T20:03:38.427Z,58.50
2023-02-19T20:06:05.161Z,58.60
2023-02-19T20:08:31.530Z,58.64
2023-02-19T20:10:59.043Z,58.57
2023-02-19T20:13:28.665Z,58.77
2023-02-19T20:15:55.283Z,58.83
2023-02-19T20:18:21.771Z,58.63
2023-02-19T20:20:48.131Z,58.77
2023-02-19T20:23:14.495Z,58.84
2023-02-19T20:25:40.974Z,58.79
2023-02-19T20:28:07.965Z,58.93
2023-02-19T20:30:34.956Z,58.96
2023-02-19T20:33:01.560Z,58.85
2023-02-19T20:35:31.845Z,58.81
2023-02-19T20:37:58.191Z,58.54
2023-02-19T20:40:27.337Z,58.55
2023-02-19T20:42:54.453Z,58.54
2023-02-19T20:45:21.289Z,58.68
2023-02-19T20:47:48.920Z,58.62
2023-02-19T20:50:18.486Z,58.59
2023-02-19T20:52:45.910Z,58.53
2023-02-19T20:55:12.939Z,58.55
2023-02-19T20:57:39.284Z,58.46
2023-02-19T21:00:06.234Z,58.41
2023-02-19T21:02:32.635Z,58.48
2023-02-19T21:04:59.647Z,58.49
2023-02-19T21:07:26.899Z,58.60
2023-02-19T21:09:53.637Z,58.25
2023-02-19T21:12:22.006Z,58.43
2023-02-19T21:14:48.688Z,58.80
2023-02-19T21:17:15.314Z,58.79
2023-02-19T21:19:41.856Z,58.84
2023-02-19T21:22:08.354Z,58.77
2023-02-19T21:24:34.909Z,58.86
2023-02-19T21:27:01.543Z,58.99
2023-02-19T21:29:27.944Z,58.70
2023-02-19T21:31:56.407Z,58.91
2023-02-19T21:34:26.150Z,58.94
2023-02-19T21:36:52.851Z,59.13
2023-02-19T21:39:21.598Z,58.99
2023-02-19T21:41:48.340Z,59.16
2023-02-19T21:44:14.767Z,59.25
2023-02-19T21:46:41.429Z,59.20
2023-02-19T21:49:08.023Z,59.37
2023-02-19T21:51:37.192Z,59.50
2023-02-19T21:54:05.233Z,59.71
2023-02-19T21:56:35.115Z,59.55
2023-02-19T21:59:02.883Z,59.64
2023-02-19T22:01:34.411Z,59.95
2023-02-19T22:04:00.875Z,60.00
2023-02-19T22:06:29.570Z,60.16
2023-02-19T22:08:56.454Z,60.14
2023-02-19T22:11:23.348Z,60.49
2023-02-19T22:13:50.064Z,60.55
2023-02-19T22:16:17.465Z,60.85
2023-02-19T22:18:51.520Z,60.75
2023-02-19T22:21:18.646Z,60.66
2023-02-19T22:23:46.546Z,61.05
2023-02-19T22:26:26.848Z,60.79
2023-02-19T22:28:54.035Z,60.85
2023-02-19T22:31:23.400Z,61.06
2023-02-19T22:33:50.367Z,60.84
2023-02-19T22:36:23.275Z,60.96
2023-02-19T22:38:50.136Z,61.10
2023-02-19T22:41:17.858Z,61.14
2023-02-19T22:43:44.838Z,60.92
2023-02-19T22:46:19.652Z,60.84
2023-02-19T22:48:45.993Z,61.07
2023-02-19T22:51:14.254Z,61.03
2023-02-19T22:53:57.600Z,60.91
2023-02-19T22:56:26.919Z,60.75
2023-02-19T22:58:54.654Z,60.96
2023-02-19T23:01:21.678Z,60.64
2023-02-19T23:03:53.808Z,60.73
2023-02-19T23:06:34.502Z,60.75
2023-02-19T23:09:10.550Z,60.88
2023-02-19T23:11:38.986Z,61.05
2023-02-19T23:14:06.804Z,61.04
2023-02-19T23:16:35.865Z,60.99
2023-02-19T23:19:04.813Z,60.93
2023-02-19T23:21:31.755Z,61.12
2023-02-19T23:23:59.012Z,60.94
2023-02-19T23:26:25.792Z,61.03
2023-02-19T23:28:52.178Z,60.92
2023-02-19T23:31:18.932Z,61.18
2023-02-19T23:33:45.455Z,61.14
2023-02-19T23:36:13.852Z,61.12
2023-02-19T23:38:40.621Z,60.97
2023-02-19T23:41:11.826Z,61.15
2023-02-19T23:43:38.887Z,61.16
2023-02-19T23:46:05.857Z,61.47
2023-02-19T23:48:32.946Z,61.16
2023-02-19T23:50:59.336Z,60.96
2023-02-19T23:53:25.701Z,61.25
2023-02-19T23:55:52.058Z,60.95
2023-02-19T23:58:18.878Z,60.80
